createdAt,value
2017-03-09T00:00:53.058Z,1011.68
2017-03-09T00:02:04.529Z,1011.67
2017-03-09T00:03:15.974Z,1011.71
2017-03-09T00:04:27.426Z,1011.73
2017-03-09T00:05:39.065Z,1011.75
2017-03-09T00:06:50.515Z,1011.78
2017-03-09T00:08:01.951Z,1011.78
2017-03-09T00:09:13.407Z,1011.83
2017-03-09T00:10:25.103Z,1011.85
2017-03-09T00:11:36.735Z,1011.83
2017-03-09T00:12:48.193Z,1011.9
2017-03-09T00:13:59.633Z,1011.88
2017-03-09T00:15:11.074Z,1011.91
2017-03-09T00:16:22.506Z,1011.92
2017-03-09T00:17:33.936Z,1011.98
2017-03-09T00:18:45.365Z,1012.01
2017-03-09T00:19:56.850Z,1012.02
2017-03-09T00:21:08.523Z,1012.03
2017-03-09T00:22:19.954Z,1012.13
2017-03-09T00:23:31.383Z,1012.13
2017-03-09T00:24:42.813Z,1012.14
2017-03-09T00:25:54.243Z,1012.13
2017-03-09T00:27:05.675Z,1012.17
2017-03-09T00:28:17.110Z,1012.21
2017-03-09T00:29:28.757Z,1012.2
2017-03-09T00:30:40.233Z,1012.23
2017-03-09T00:31:51.872Z,1012.3
2017-03-09T00:33:03.304Z,1012.36
2017-03-09T00:34:14.934Z,1012.37
2017-03-09T00:35:26.386Z,1012.38
2017-03-09T00:36:37.831Z,1012.39
2017-03-09T00:37:49.285Z,1012.46
2017-03-09T00:39:00.739Z,1012.45
2017-03-09T00:40:12.187Z,1012.46
2017-03-09T00:41:23.654Z,1012.5
2017-03-09T00:42:35.295Z,1012.48
2017-03-09T00:43:46.761Z,1012.53
2017-03-09T00:44:58.202Z,1012.55
2017-03-09T00:46:09.640Z,1012.54
2017-03-09T00:47:21.088Z,1012.51
2017-03-09T00:48:32.577Z,1012.51
2017-03-09T00:49:44.013Z,1012.54
2017-03-09T00:50:55.470Z,1012.54
2017-03-09T00:52:07.117Z,1012.56
2017-03-09T00:53:18.623Z,1012.58
2017-03-09T00:54:30.083Z,1012.56
2017-03-09T00:55:41.534Z,1012.58
2017-03-09T00:56:53.177Z,1012.59
2017-03-09T00:58:04.649Z,1012.64
2017-03-09T00:59:16.310Z,1012.67
2017-03-09T01:00:27.751Z,1012.63
2017-03-09T01:01:39.197Z,1012.67
2017-03-09T01:02:50.638Z,1012.62
2017-03-09T01:04:02.273Z,1012.67
2017-03-09T01:05:13.921Z,1012.69
2017-03-09T01:06:25.356Z,1012.69
2017-03-09T01:07:36.811Z,1012.69
2017-03-09T01:08:48.301Z,1012.69
2017-03-09T01:09:59.770Z,1012.65
2017-03-09T01:11:11.215Z,1012.65
2017-03-09T01:12:22.655Z,1012.66
2017-03-09T01:13:34.295Z,1012.68
2017-03-09T01:14:45.947Z,1012.7
2017-03-09T01:15:57.599Z,1012.73
2017-03-09T01:17:09.051Z,1012.7
2017-03-09T01:18:20.491Z,1012.78
2017-03-09T01:19:31.939Z,1012.76
2017-03-09T01:20:43.423Z,1012.73
2017-03-09T01:21:55.060Z,1012.76
2017-03-09T01:23:06.482Z,1012.76
2017-03-09T01:24:17.942Z,1012.75
2017-03-09T01:25:29.388Z,1012.77
2017-03-09T01:26:40.817Z,1012.79
2017-03-09T01:27:52.246Z,1012.79
2017-03-09T01:29:03.698Z,1012.85
2017-03-09T01:30:15.181Z,1012.79
2017-03-09T01:31:26.628Z,1012.81
2017-03-09T01:32:38.079Z,1012.85
2017-03-09T01:33:49.531Z,1012.87
2017-03-09T01:35:00.976Z,1012.87
2017-03-09T01:36:12.414Z,1012.9
2017-03-09T01:37:23.876Z,1012.89
2017-03-09T01:38:35.320Z,1012.9
2017-03-09T01:39:46.751Z,1012.89
2017-03-09T01:40:58.237Z,1012.9
2017-03-09T01:42:09.877Z,1012.92
2017-03-09T01:43:21.332Z,1012.9
2017-03-09T01:44:32.763Z,1012.9
2017-03-09T01:45:44.213Z,1012.86
2017-03-09T01:46:55.871Z,1012.86
2017-03-09T01:48:07.294Z,1012.83
2017-03-09T01:49:18.965Z,1012.82
2017-03-09T01:50:30.411Z,1012.83
2017-03-09T01:51:42.060Z,1012.85
2017-03-09T01:52:53.503Z,1012.87
2017-03-09T01:54:04.945Z,1012.91
2017-03-09T01:55:16.382Z,1012.84
2017-03-09T01:56:27.826Z,1012.85
2017-03-09T01:57:39.521Z,1012.84
2017-03-09T01:58:51.183Z,1012.85
2017-03-09T02:00:02.630Z,1012.83
2017-03-09T02:01:14.088Z,1012.81
2017-03-09T02:02:25.550Z,1012.86
2017-03-09T02:03:36.989Z,1012.86
2017-03-09T02:04:48.426Z,1012.84
2017-03-09T02:05:59.869Z,1012.86
2017-03-09T02:07:11.309Z,1012.86
2017-03-09T02:08:22.807Z,1012.88
2017-03-09T02:09:34.296Z,1012.86
2017-03-09T02:10:45.760Z,1012.84
2017-03-09T02:11:57.222Z,1012.8
2017-03-09T02:13:08.683Z,1012.8
2017-03-09T02:14:20.147Z,1012.83
2017-03-09T02:15:31.578Z,1012.81
2017-03-09T02:16:43.040Z,1012.81
2017-03-09T02:17:54.486Z,1012.85
2017-03-09T02:19:05.979Z,1012.86
2017-03-09T02:20:17.409Z,1012.88
2017-03-09T02:21:28.887Z,1012.85
2017-03-09T02:22:40.541Z,1012.91
2017-03-09T02:23:52.400Z,1012.87
2017-03-09T02:25:03.874Z,1012.9
2017-03-09T02:26:15.516Z,1012.88
2017-03-09T02:27:26.997Z,1012.86
2017-03-09T02:28:38.442Z,1012.88
2017-03-09T02:29:49.871Z,1012.9
2017-03-09T02:31:01.371Z,1012.86
2017-03-09T02:32:13.024Z,1012.83
2017-03-09T02:33:24.642Z,1012.82
2017-03-09T02:34:36.080Z,1012.78
2017-03-09T02:35:47.511Z,1012.83
2017-03-09T02:36:58.986Z,1012.8
2017-03-09T02:38:10.411Z,1012.81
2017-03-09T02:39:22.059Z,1012.77
2017-03-09T02:40:33.759Z,1012.72
2017-03-09T02:41:45.197Z,1012.74
2017-03-09T02:42:56.633Z,1012.72
2017-03-09T02:44:08.062Z,1012.81
2017-03-09T02:45:19.488Z,1012.82
2017-03-09T02:46:31.330Z,1012.84
2017-03-09T02:47:42.998Z,1012.8
2017-03-09T02:48:54.438Z,1012.88
2017-03-09T02:50:05.913Z,1012.92
2017-03-09T02:51:17.815Z,1012.93
2017-03-09T02:52:29.252Z,1012.96
2017-03-09T02:53:40.886Z,1012.96
2017-03-09T02:54:52.313Z,1013
2017-03-09T02:56:03.743Z,1013.01
2017-03-09T02:57:15.169Z,1012.95
2017-03-09T02:58:26.607Z,1012.99
2017-03-09T02:59:38.059Z,1013.13
2017-03-09T03:00:49.489Z,1013.11
2017-03-09T03:02:01.131Z,1013.15
2017-03-09T03:03:12.650Z,1013.13
2017-03-09T03:04:24.083Z,1013.12
2017-03-09T03:05:35.508Z,1013.14
2017-03-09T03:06:46.964Z,1013.12
2017-03-09T03:07:58.399Z,1013.15
2017-03-09T03:09:09.856Z,1013.12
2017-03-09T03:10:21.710Z,1013.12
2017-03-09T03:11:33.161Z,1013.08
2017-03-09T03:12:44.653Z,1013.11
2017-03-09T03:13:56.097Z,1013.12
2017-03-09T03:15:07.551Z,1013.14
2017-03-09T03:16:19.193Z,1013.16
2017-03-09T03:17:30.838Z,1013.21
2017-03-09T03:18:42.287Z,1013.18
2017-03-09T03:19:53.724Z,1013.23
2017-03-09T03:21:05.170Z,1013.16
2017-03-09T03:22:16.613Z,1013.23
2017-03-09T03:23:28.102Z,1013.19
2017-03-09T03:24:39.761Z,1013.15
2017-03-09T03:25:51.218Z,1013.19
2017-03-09T03:27:02.659Z,1013.17
2017-03-09T03:28:14.087Z,1013.22
2017-03-09T03:29:25.561Z,1013.22
2017-03-09T03:30:37.011Z,1013.24
2017-03-09T03:31:48.663Z,1013.22
2017-03-09T03:33:00.090Z,1013.15
2017-03-09T03:34:11.509Z,1013.16
2017-03-09T03:35:22.946Z,1013.1
2017-03-09T03:36:34.397Z,1013.07
2017-03-09T03:37:46.034Z,1013.04
2017-03-09T03:38:57.487Z,1013.04
2017-03-09T03:40:08.968Z,1013.09
2017-03-09T03:41:20.444Z,1013.13
2017-03-09T03:42:31.883Z,1013.07
2017-03-09T03:43:43.332Z,1013.08
2017-03-09T03:44:54.769Z,1013.11
2017-03-09T03:46:06.225Z,1013.13
2017-03-09T03:47:17.850Z,1013.14
2017-03-09T03:48:29.277Z,1013.11
2017-03-09T03:49:40.916Z,1013.16
2017-03-09T03:50:52.606Z,1013.18
2017-03-09T03:52:04.066Z,1013.2
2017-03-09T03:53:15.694Z,1013.18
2017-03-09T03:54:27.117Z,1013.15
2017-03-09T03:55:38.549Z,1013.2
2017-03-09T03:56:49.972Z,1013.2
2017-03-09T03:58:01.421Z,1013.25
2017-03-09T03:59:12.875Z,1013.27
2017-03-09T04:00:24.324Z,1013.25
2017-03-09T04:01:35.802Z,1013.21
2017-03-09T04:02:47.244Z,1013.12
2017-03-09T04:03:58.890Z,1013.06
2017-03-09T04:05:10.325Z,1013.08
2017-03-09T04:06:21.761Z,1013.02
2017-03-09T04:07:33.205Z,1013.07
2017-03-09T04:08:44.647Z,1013.04
2017-03-09T04:09:56.272Z,1013.02
2017-03-09T04:11:07.738Z,1013.05
2017-03-09T04:12:19.378Z,1012.99
2017-03-09T04:13:30.885Z,1013.05
2017-03-09T04:14:42.534Z,1013.06
2017-03-09T04:15:53.978Z,1013.05
2017-03-09T04:17:05.427Z,1012.99
2017-03-09T04:18:16.880Z,1013
2017-03-09T04:19:28.332Z,1012.96
2017-03-09T04:20:39.805Z,1012.98
2017-03-09T04:21:51.455Z,1012.97
2017-03-09T04:23:02.950Z,1012.94
2017-03-09T04:24:14.589Z,1012.97
2017-03-09T04:25:26.245Z,1012.99
2017-03-09T04:26:37.886Z,1012.97
2017-03-09T04:27:49.335Z,1013.04
2017-03-09T04:29:00.768Z,1013.06
2017-03-09T04:30:12.217Z,1013.05
2017-03-09T04:31:23.656Z,1013.06
2017-03-09T04:32:35.088Z,1013.06
2017-03-09T04:33:46.778Z,1013.08
2017-03-09T04:34:58.422Z,1013.07
2017-03-09T04:36:09.862Z,1013.07
2017-03-09T04:37:21.501Z,1013.11
2017-03-09T04:38:32.928Z,1013.12
2017-03-09T04:39:44.551Z,1013.13
2017-03-09T04:40:55.992Z,1013.17
2017-03-09T04:42:07.429Z,1013.18
2017-03-09T04:43:18.873Z,1013.2
2017-03-09T04:44:30.309Z,1013.2
2017-03-09T04:45:41.746Z,1013.18
2017-03-09T04:46:53.383Z,1013.11
2017-03-09T04:48:04.829Z,1013.09
2017-03-09T04:49:16.269Z,1013.08
2017-03-09T04:50:27.736Z,1013.11
2017-03-09T04:51:39.206Z,1013.03
2017-03-09T04:52:50.835Z,1012.98
2017-03-09T04:54:02.281Z,1012.97
2017-03-09T04:55:13.713Z,1012.87
2017-03-09T04:56:25.160Z,1012.84
2017-03-09T04:57:36.785Z,1012.78
2017-03-09T04:58:48.647Z,1012.81
2017-03-09T05:00:00.099Z,1012.9
2017-03-09T05:01:11.595Z,1012.94
2017-03-09T05:02:23.014Z,1013
2017-03-09T05:03:34.470Z,1012.96
2017-03-09T05:04:45.903Z,1012.93
2017-03-09T05:05:57.322Z,1012.96
2017-03-09T05:07:08.771Z,1013.04
2017-03-09T05:08:20.208Z,1013.02
2017-03-09T05:09:32.043Z,1013.11
2017-03-09T05:10:43.477Z,1013.17
2017-03-09T05:11:55.367Z,1013.22
2017-03-09T05:13:06.827Z,1013.21
2017-03-09T05:14:18.292Z,1013.19
2017-03-09T05:15:29.744Z,1013.16
2017-03-09T05:16:41.177Z,1013.13
2017-03-09T05:17:52.608Z,1013.09
2017-03-09T05:19:04.044Z,1013.13
2017-03-09T05:20:15.695Z,1013.18
2017-03-09T05:21:27.167Z,1013.16
2017-03-09T05:22:38.795Z,1013.17
2017-03-09T05:23:50.474Z,1013.23
2017-03-09T05:25:01.904Z,1013.23
2017-03-09T05:26:13.344Z,1013.21
2017-03-09T05:27:24.786Z,1013.18
2017-03-09T05:28:36.246Z,1013.13
2017-03-09T05:29:47.730Z,1013.2
2017-03-09T05:30:59.169Z,1013.22
2017-03-09T05:32:10.604Z,1013.27
2017-03-09T05:33:22.079Z,1013.29
2017-03-09T05:34:33.512Z,1013.27
2017-03-09T05:35:44.962Z,1013.3
2017-03-09T05:36:56.391Z,1013.28
2017-03-09T05:38:08.043Z,1013.31
2017-03-09T05:39:19.468Z,1013.29
2017-03-09T05:40:31.106Z,1013.26
2017-03-09T05:41:42.558Z,1013.23
2017-03-09T05:42:53.985Z,1013.23
2017-03-09T05:44:05.481Z,1013.19
2017-03-09T05:45:16.924Z,1013.23
2017-03-09T05:46:28.347Z,1013.27
2017-03-09T05:47:39.986Z,1013.28
2017-03-09T05:48:51.448Z,1013.3
2017-03-09T05:50:02.898Z,1013.29
2017-03-09T05:51:14.345Z,1013.22
2017-03-09T05:52:25.806Z,1013.18
2017-03-09T05:53:37.239Z,1013.22
2017-03-09T05:54:48.681Z,1013.16
2017-03-09T05:56:00.156Z,1013.13
2017-03-09T05:57:11.611Z,1013.1
2017-03-09T05:58:23.059Z,1013
2017-03-09T05:59:34.500Z,1013
2017-03-09T06:00:45.928Z,1012.94
2017-03-09T06:01:57.585Z,1012.99
2017-03-09T06:03:09.025Z,1013.01
2017-03-09T06:04:20.470Z,1013.03
2017-03-09T06:05:32.166Z,1013.05
2017-03-09T06:06:43.822Z,1012.98
2017-03-09T06:07:55.261Z,1013.04
2017-03-09T06:09:06.903Z,1013.06
2017-03-09T06:10:18.337Z,1013.06
2017-03-09T06:11:29.791Z,1013.09
2017-03-09T06:12:41.448Z,1013.1
2017-03-09T06:13:53.103Z,1013.12
2017-03-09T06:15:04.543Z,1013.14
2017-03-09T06:16:16.048Z,1013.14
2017-03-09T06:17:27.504Z,1013.17
2017-03-09T06:18:38.928Z,1013.15
2017-03-09T06:19:50.378Z,1013.06
2017-03-09T06:21:01.824Z,1013.1
2017-03-09T06:22:13.335Z,1013.08
2017-03-09T06:23:24.996Z,1013.03
2017-03-09T06:24:36.468Z,1013.04
2017-03-09T06:25:47.903Z,1012.99
2017-03-09T06:26:59.347Z,1012.96
2017-03-09T06:28:10.797Z,1012.91
2017-03-09T06:29:22.438Z,1012.92
2017-03-09T06:30:33.875Z,1012.9
2017-03-09T06:31:45.308Z,1012.86
2017-03-09T06:32:56.756Z,1012.86
2017-03-09T06:34:08.236Z,1012.88
2017-03-09T06:35:19.694Z,1012.9
2017-03-09T06:36:31.147Z,1012.96
2017-03-09T06:37:42.578Z,1012.95
2017-03-09T06:38:54.018Z,1012.93
2017-03-09T06:40:05.465Z,1012.91
2017-03-09T06:41:16.898Z,1012.87
2017-03-09T06:42:28.325Z,1012.88
2017-03-09T06:43:39.815Z,1012.89
2017-03-09T06:44:51.443Z,1012.86
2017-03-09T06:46:02.906Z,1012.84
2017-03-09T06:47:14.550Z,1012.85
2017-03-09T06:48:25.989Z,1012.76
2017-03-09T06:49:37.433Z,1012.78
2017-03-09T06:50:49.092Z,1012.82
2017-03-09T06:52:00.523Z,1012.78
2017-03-09T06:53:11.955Z,1012.76
2017-03-09T06:54:23.648Z,1012.74
2017-03-09T06:55:35.086Z,1012.8
2017-03-09T06:56:46.522Z,1012.8
2017-03-09T06:57:57.977Z,1012.77
2017-03-09T06:59:09.420Z,1012.78
2017-03-09T07:00:21.049Z,1012.82
2017-03-09T07:01:32.699Z,1012.88
2017-03-09T07:02:44.328Z,1012.88
2017-03-09T07:03:55.773Z,1012.87
2017-03-09T07:05:07.204Z,1012.79
2017-03-09T07:06:18.714Z,1012.77
2017-03-09T07:07:30.150Z,1012.77
2017-03-09T07:08:41.587Z,1012.75
2017-03-09T07:09:53.027Z,1012.74
2017-03-09T07:11:04.660Z,1012.74
2017-03-09T07:12:16.126Z,1012.8
2017-03-09T07:13:27.578Z,1012.78
2017-03-09T07:14:39.234Z,1012.76
2017-03-09T07:15:50.720Z,1012.78
2017-03-09T07:17:02.164Z,1012.77
2017-03-09T07:18:13.591Z,1012.82
2017-03-09T07:19:25.041Z,1012.79
2017-03-09T07:20:36.472Z,1012.78
2017-03-09T07:21:47.918Z,1012.73
2017-03-09T07:22:59.348Z,1012.69
2017-03-09T07:24:10.782Z,1012.7
2017-03-09T07:25:22.220Z,1012.69
2017-03-09T07:26:33.920Z,1012.72
2017-03-09T07:27:45.379Z,1012.7
2017-03-09T07:28:56.812Z,1012.77
2017-03-09T07:30:08.243Z,1012.76
2017-03-09T07:31:19.679Z,1012.76
2017-03-09T07:32:31.318Z,1012.77
2017-03-09T07:33:42.745Z,1012.79
2017-03-09T07:34:54.370Z,1012.79
2017-03-09T07:36:05.816Z,1012.74
2017-03-09T07:37:17.240Z,1012.73
2017-03-09T07:38:28.668Z,1012.76
2017-03-09T07:39:40.137Z,1012.76
2017-03-09T07:40:51.772Z,1012.7
2017-03-09T07:42:03.214Z,1012.66
2017-03-09T07:43:14.664Z,1012.64
2017-03-09T07:44:26.365Z,1012.61
2017-03-09T07:45:37.818Z,1012.63
2017-03-09T07:46:49.268Z,1012.6
2017-03-09T07:48:00.715Z,1012.54
2017-03-09T07:49:12.159Z,1012.5
2017-03-09T07:50:23.606Z,1012.49
2017-03-09T07:51:35.049Z,1012.45
2017-03-09T07:52:46.483Z,1012.5
2017-03-09T07:53:57.981Z,1012.49
2017-03-09T07:55:09.407Z,1012.51
2017-03-09T07:56:21.053Z,1012.48
2017-03-09T07:57:32.693Z,1012.49
2017-03-09T07:58:44.126Z,1012.51
2017-03-09T07:59:55.600Z,1012.54
2017-03-09T08:01:07.034Z,1012.58
2017-03-09T08:02:18.474Z,1012.53
2017-03-09T08:03:30.117Z,1012.52
2017-03-09T08:04:41.602Z,1012.53
2017-03-09T08:05:53.041Z,1012.5
2017-03-09T08:07:04.515Z,1012.45
2017-03-09T08:08:15.960Z,1012.44
2017-03-09T08:09:27.391Z,1012.43
2017-03-09T08:10:39.031Z,1012.41
2017-03-09T08:11:50.664Z,1012.41
2017-03-09T08:13:02.106Z,1012.43
2017-03-09T08:14:13.551Z,1012.43
2017-03-09T08:15:25.211Z,1012.44
2017-03-09T08:16:36.911Z,1012.39
2017-03-09T08:17:48.574Z,1012.41
2017-03-09T08:19:00.006Z,1012.44
2017-03-09T08:20:11.478Z,1012.4
2017-03-09T08:21:22.920Z,1012.45
2017-03-09T08:22:34.371Z,1012.4
2017-03-09T08:23:46.009Z,1012.52
2017-03-09T08:24:57.453Z,1012.52
2017-03-09T08:26:08.985Z,1012.5
2017-03-09T08:27:20.626Z,1012.53
2017-03-09T08:28:32.077Z,1012.54
2017-03-09T08:29:43.527Z,1012.49
2017-03-09T08:30:55.378Z,1012.5
2017-03-09T08:32:06.830Z,1012.48
2017-03-09T08:33:18.309Z,1012.46
2017-03-09T08:34:29.766Z,1012.49
2017-03-09T08:35:41.422Z,1012.57
2017-03-09T08:36:52.908Z,1012.6
2017-03-09T08:40:21.823Z,1012.58
2017-03-09T08:41:33.498Z,1012.59
2017-03-09T08:42:45.178Z,1012.6
2017-03-09T08:43:56.655Z,1012.65
2017-03-09T08:45:08.134Z,1012.67
2017-03-09T08:47:29.568Z,1012.82
2017-03-09T08:48:41.236Z,1012.78
2017-03-09T08:49:52.900Z,1012.84
2017-03-09T08:51:04.347Z,1012.72
2017-03-09T08:52:15.829Z,1012.72
2017-03-09T08:53:27.332Z,1012.78
2017-03-09T08:54:38.798Z,1012.82
2017-03-09T08:55:50.254Z,1012.83
2017-03-09T08:57:01.740Z,1012.91
2017-03-09T08:58:13.395Z,1012.99
2017-03-09T08:59:24.886Z,1012.93
2017-03-09T09:00:36.330Z,1012.89
2017-03-09T09:01:47.788Z,1012.85
2017-03-09T09:02:59.305Z,1012.75
2017-03-09T09:04:10.959Z,1012.64
2017-03-09T09:05:22.439Z,1012.65
2017-03-09T09:06:33.921Z,1012.63
2017-03-09T09:07:45.577Z,1012.59
2017-03-09T09:08:57.028Z,1012.53
2017-03-09T09:10:08.484Z,1012.49
2017-03-09T09:11:19.936Z,1012.46
2017-03-09T09:12:31.423Z,1012.4
2017-03-09T09:13:42.940Z,1012.48
2017-03-09T09:14:54.393Z,1012.56
2017-03-09T09:16:05.838Z,1012.68
2017-03-09T09:17:17.299Z,1012.63
2017-03-09T09:18:28.750Z,1012.56
2017-03-09T09:19:40.392Z,1012.53
2017-03-09T09:20:51.842Z,1012.52
2017-03-09T09:22:03.295Z,1012.48
2017-03-09T09:23:14.752Z,1012.46
2017-03-09T09:24:26.206Z,1012.47
2017-03-09T09:25:37.717Z,1012.49
2017-03-09T09:26:49.155Z,1012.46
2017-03-09T09:28:00.645Z,1012.43
2017-03-09T09:29:12.112Z,1012.42
2017-03-09T09:30:23.558Z,1012.4
2017-03-09T09:31:35.009Z,1012.38
2017-03-09T09:32:46.476Z,1012.36
2017-03-09T09:33:57.923Z,1012.28
2017-03-09T09:35:09.627Z,1012.18
2017-03-09T09:36:21.067Z,1012.15
2017-03-09T09:37:32.930Z,1012.14
2017-03-09T09:38:44.394Z,1012.15
2017-03-09T09:39:55.845Z,1012.15
2017-03-09T09:41:07.491Z,1012.09
2017-03-09T09:42:18.956Z,1012.03
2017-03-09T09:43:30.398Z,1012.06
2017-03-09T09:44:41.864Z,1012.08
2017-03-09T09:45:53.384Z,1012.04
2017-03-09T09:47:04.839Z,1011.97
2017-03-09T09:48:16.277Z,1012.05
2017-03-09T09:49:28.141Z,1012.07
2017-03-09T09:50:39.596Z,1012.11
2017-03-09T09:51:51.132Z,1012.04
2017-03-09T09:53:02.584Z,1012.01
2017-03-09T09:54:11.941Z,1011.98
2017-03-09T09:55:23.592Z,1011.98
2017-03-09T09:56:35.235Z,1011.94
2017-03-09T09:57:46.683Z,1011.92
2017-03-09T09:58:58.357Z,1011.95
2017-03-09T10:00:09.822Z,1011.91
2017-03-09T10:01:21.263Z,1011.91
2017-03-09T10:02:32.918Z,1011.87
2017-03-09T10:03:44.670Z,1011.9
2017-03-09T10:04:56.147Z,1011.92
2017-03-09T10:06:07.582Z,1011.95
2017-03-09T10:07:19.028Z,1011.93
2017-03-09T10:08:30.463Z,1011.92
2017-03-09T10:09:41.916Z,1011.9
2017-03-09T10:10:53.359Z,1011.91
2017-03-09T10:12:05.190Z,1011.95
2017-03-09T10:13:16.678Z,1011.89
2017-03-09T10:14:28.170Z,1011.9
2017-03-09T10:15:39.837Z,1011.92
2017-03-09T10:16:51.286Z,1011.9
2017-03-09T10:18:03.136Z,1011.92
2017-03-09T10:19:14.579Z,1011.87
2017-03-09T10:20:26.035Z,1011.88
2017-03-09T10:21:37.474Z,1011.89
2017-03-09T10:22:48.919Z,1011.94
2017-03-09T10:24:00.419Z,1011.95
2017-03-09T10:25:11.873Z,1011.93
2017-03-09T10:26:23.317Z,1011.89
2017-03-09T10:27:34.764Z,1011.85
2017-03-09T10:28:46.228Z,1011.85
2017-03-09T10:29:58.077Z,1011.84
2017-03-09T10:31:09.530Z,1011.84
2017-03-09T10:32:20.968Z,1011.84
2017-03-09T10:33:32.421Z,1011.84
2017-03-09T10:34:43.927Z,1011.86
2017-03-09T10:35:55.381Z,1011.81
2017-03-09T10:37:06.847Z,1011.83
2017-03-09T10:38:18.489Z,1011.84
2017-03-09T10:39:29.950Z,1011.84
2017-03-09T10:40:41.608Z,1011.84
2017-03-09T10:41:53.052Z,1011.83
2017-03-09T10:43:04.504Z,1011.81
2017-03-09T10:44:15.948Z,1011.8
2017-03-09T10:45:28.054Z,1011.77
2017-03-09T10:46:39.492Z,1011.8
2017-03-09T10:47:50.944Z,1011.8
2017-03-09T10:49:02.585Z,1011.81
2017-03-09T10:50:14.033Z,1011.82
2017-03-09T10:51:25.503Z,1011.79
2017-03-09T10:52:36.941Z,1011.82
2017-03-09T10:53:48.382Z,1011.78
2017-03-09T10:55:00.028Z,1011.78
2017-03-09T10:56:11.512Z,1011.78
2017-03-09T10:57:22.990Z,1011.8
2017-03-09T10:58:34.420Z,1011.77
2017-03-09T10:59:45.888Z,1011.78
2017-03-09T11:00:57.323Z,1011.74
2017-03-09T11:02:09.058Z,1011.73
2017-03-09T11:03:20.512Z,1011.72
2017-03-09T11:04:31.975Z,1011.73
2017-03-09T11:05:43.628Z,1011.71
2017-03-09T11:06:55.067Z,1011.72
2017-03-09T11:08:06.503Z,1011.74
2017-03-09T11:09:18.161Z,1011.75
2017-03-09T11:10:29.791Z,1011.75
2017-03-09T11:11:41.230Z,1011.73
2017-03-09T11:12:52.863Z,1011.73
2017-03-09T11:14:04.695Z,1011.73
2017-03-09T11:15:16.143Z,1011.72
2017-03-09T11:16:27.787Z,1011.66
2017-03-09T11:17:39.260Z,1011.69
2017-03-09T11:18:50.695Z,1011.62
2017-03-09T11:20:02.342Z,1011.66
2017-03-09T11:21:13.975Z,1011.66
2017-03-09T11:22:25.518Z,1011.64
2017-03-09T11:23:36.979Z,1011.57
2017-03-09T11:24:48.411Z,1011.55
2017-03-09T11:25:59.876Z,1011.58
2017-03-09T11:27:11.327Z,1011.54
2017-03-09T11:28:22.840Z,1011.56
2017-03-09T11:29:34.307Z,1011.53
2017-03-09T11:30:45.945Z,1011.56
2017-03-09T11:31:57.408Z,1011.5
2017-03-09T11:33:08.842Z,1011.46
2017-03-09T11:34:20.293Z,1011.5
2017-03-09T11:35:31.960Z,1011.45
2017-03-09T11:36:43.393Z,1011.42
2017-03-09T11:37:54.826Z,1011.45
2017-03-09T11:39:06.473Z,1011.44
2017-03-09T11:40:17.924Z,1011.5
2017-03-09T11:41:29.376Z,1011.44
2017-03-09T11:42:41.222Z,1011.37
2017-03-09T11:43:52.662Z,1011.41
2017-03-09T11:45:04.101Z,1011.39
2017-03-09T11:46:15.560Z,1011.46
2017-03-09T11:47:27.006Z,1011.45
2017-03-09T11:48:38.434Z,1011.48
2017-03-09T11:49:49.941Z,1011.43
2017-03-09T11:51:01.367Z,1011.42
2017-03-09T11:52:12.815Z,1011.39
2017-03-09T11:53:24.285Z,1011.41
2017-03-09T11:54:35.744Z,1011.38
2017-03-09T11:55:47.195Z,1011.36
2017-03-09T11:56:58.649Z,1011.33
2017-03-09T11:58:10.079Z,1011.39
2017-03-09T11:59:21.574Z,1011.36
2017-03-09T12:00:33.243Z,1011.3
2017-03-09T12:01:44.703Z,1011.33
2017-03-09T12:02:56.147Z,1011.31
2017-03-09T12:04:07.768Z,1011.28
2017-03-09T12:05:19.209Z,1011.25
2017-03-09T12:06:30.674Z,1011.25
2017-03-09T12:07:42.152Z,1011.25
2017-03-09T12:08:53.596Z,1011.24
2017-03-09T12:10:05.097Z,1011.25
2017-03-09T12:11:16.548Z,1011.28
2017-03-09T12:12:27.994Z,1011.19
2017-03-09T12:13:39.431Z,1011.22
2017-03-09T12:14:50.875Z,1011.19
2017-03-09T12:16:02.319Z,1011.2
2017-03-09T12:17:13.771Z,1011.13
2017-03-09T12:18:25.219Z,1011.17
2017-03-09T12:19:36.658Z,1011.14
2017-03-09T12:20:48.151Z,1011.1
2017-03-09T12:21:59.621Z,1011.07
2017-03-09T12:23:11.061Z,1011.12
2017-03-09T12:24:22.923Z,1011.08
2017-03-09T12:25:34.397Z,1011.03
2017-03-09T12:26:45.847Z,1011.12
2017-03-09T12:27:57.345Z,1011.1
2017-03-09T12:29:08.816Z,1011.15
2017-03-09T12:30:20.268Z,1011.16
2017-03-09T12:31:31.931Z,1011.22
2017-03-09T12:32:43.617Z,1011.16
2017-03-09T12:33:55.081Z,1011.17
2017-03-09T12:35:06.522Z,1011.11
2017-03-09T12:36:18.013Z,1011.12
2017-03-09T12:37:29.474Z,1011.1
2017-03-09T12:38:40.956Z,1011.12
2017-03-09T12:39:52.419Z,1011.09
2017-03-09T12:41:03.868Z,1011.12
2017-03-09T12:42:15.315Z,1010.99
2017-03-09T12:43:26.763Z,1010.97
2017-03-09T12:44:38.503Z,1011
2017-03-09T12:45:49.948Z,1010.99
2017-03-09T12:47:01.390Z,1010.93
2017-03-09T12:48:12.826Z,1010.94
2017-03-09T12:49:24.260Z,1010.89
2017-03-09T12:50:35.775Z,1010.83
2017-03-09T12:51:47.418Z,1010.81
2017-03-09T12:52:58.865Z,1010.85
2017-03-09T12:54:10.319Z,1010.86
2017-03-09T12:55:21.777Z,1010.85
2017-03-09T12:56:33.210Z,1010.85
2017-03-09T12:57:44.879Z,1010.89
2017-03-09T12:58:56.527Z,1010.92
2017-03-09T13:00:08.259Z,1010.94
2017-03-09T13:01:19.922Z,1010.94
2017-03-09T13:02:31.401Z,1010.93
2017-03-09T13:03:42.877Z,1010.97
2017-03-09T13:04:54.530Z,1010.93
2017-03-09T13:06:05.985Z,1011.01
2017-03-09T13:07:17.463Z,1011
2017-03-09T13:08:28.907Z,1011.05
2017-03-09T13:09:40.362Z,1011.09
2017-03-09T13:10:51.793Z,1011.04
2017-03-09T13:12:03.458Z,1011.06
2017-03-09T13:13:14.900Z,1011.07
2017-03-09T13:14:26.569Z,1011.06
2017-03-09T13:15:38.264Z,1011.05
2017-03-09T13:16:49.706Z,1010.97
2017-03-09T13:18:01.148Z,1010.98
2017-03-09T13:19:12.600Z,1010.99
2017-03-09T13:20:24.047Z,1010.99
2017-03-09T13:21:35.701Z,1010.99
2017-03-09T13:22:47.139Z,1010.97
2017-03-09T13:23:58.601Z,1011.04
2017-03-09T13:25:10.095Z,1011.06
2017-03-09T13:26:21.547Z,1011.1
2017-03-09T13:27:32.984Z,1011.02
2017-03-09T13:28:44.462Z,1011.01
2017-03-09T13:29:56.114Z,1011.01
2017-03-09T13:31:07.587Z,1011.01
2017-03-09T13:32:19.025Z,1011.02
2017-03-09T13:33:30.455Z,1010.97
2017-03-09T13:34:42.103Z,1010.97
2017-03-09T13:35:53.545Z,1011.01
2017-03-09T13:37:05.004Z,1011.01
2017-03-09T13:38:16.653Z,1010.98
2017-03-09T13:39:28.295Z,1011.04
2017-03-09T13:40:39.798Z,1011.02
2017-03-09T13:41:51.241Z,1011.03
2017-03-09T13:43:02.684Z,1011.07
2017-03-09T13:44:14.333Z,1011.04
2017-03-09T13:45:25.982Z,1011.06
2017-03-09T13:46:37.464Z,1011.04
2017-03-09T13:47:49.135Z,1010.97
2017-03-09T13:49:00.579Z,1011.02
2017-03-09T13:50:12.035Z,1011.06
2017-03-09T13:51:23.476Z,1011.05
2017-03-09T13:52:34.918Z,1010.99
2017-03-09T13:53:46.782Z,1011.02
2017-03-09T13:54:58.223Z,1010.99
2017-03-09T13:56:09.988Z,1011.01
2017-03-09T13:57:21.647Z,1011.01
2017-03-09T13:58:33.101Z,1011.07
2017-03-09T13:59:44.748Z,1011.12
2017-03-09T14:00:56.401Z,1011.13
2017-03-09T14:02:07.864Z,1011.14
2017-03-09T14:03:19.329Z,1011.13
2017-03-09T14:04:30.806Z,1011.18
2017-03-09T14:05:42.284Z,1011.19
2017-03-09T14:06:53.715Z,1011.2
2017-03-09T14:08:05.350Z,1011.26
2017-03-09T14:09:16.808Z,1011.25
2017-03-09T14:10:28.271Z,1011.23
2017-03-09T14:11:39.729Z,1011.3
2017-03-09T14:12:51.901Z,1011.29
2017-03-09T14:14:03.354Z,1011.27
2017-03-09T14:15:14.839Z,1011.23
2017-03-09T14:16:26.271Z,1011.27
2017-03-09T14:17:37.723Z,1011.29
2017-03-09T14:18:49.556Z,1011.32
2017-03-09T14:20:00.998Z,1011.3
2017-03-09T14:21:12.470Z,1011.41
2017-03-09T14:22:23.904Z,1011.42
2017-03-09T14:23:35.352Z,1011.47
2017-03-09T14:24:46.818Z,1011.47
2017-03-09T14:25:58.262Z,1011.44
2017-03-09T14:27:09.711Z,1011.61
2017-03-09T14:28:21.191Z,1011.54
2017-03-09T14:29:32.821Z,1011.49
2017-03-09T14:30:44.491Z,1011.49
2017-03-09T14:31:55.934Z,1011.54